Time;durP1;ratioP1;P1;durP2;ratioP2;P2;SDS_P1;SDS_P2;PMS_P1;PMS_P2;Temp;Humidity;BMP_temperature;BMP_pressure;BME280_temperature;BME280_humidity;BME280_pressure;Samples;Min_cycle;Max_cycle;Signal;HPM_P1;HPM_P2
2021/03/20 00:01:35;;;;;;;1.08;0.70;;;;;;;;;;5033766;28;20193;-64
2021/03/20 00:04:01;;;;;;;0.80;0.80;;;;;;;;;;5051706;28;20162;-66
2021/03/20 00:06:30;;;;;;;0.10;0.10;;;;;;;;;;5051728;28;20214;-65
2021/03/20 00:08:57;;;;;;;0.77;0.77;;;;;;;;;;5070487;28;20164;-66
2021/03/20 00:11:24;;;;;;;0.10;0.10;;;;;;;;;;5091552;28;20196;-65
2021/03/20 00:13:51;;;;;;;0.15;0.15;;;;;;;;;;5091522;28;20194;-65
2021/03/20 00:16:17;;;;;;;0.20;0.20;;;;;;;;;;5091584;28;20152;-65
2021/03/20 00:18:44;;;;;;;0.65;0.65;;;;;;;;;;5073583;28;20167;-65
2021/03/20 00:21:10;;;;;;;0.10;0.10;;;;;;;;;;5091389;28;20682;-66
2021/03/20 00:23:37;;;;;;;0.45;0.45;;;;;;;;;;5073338;28;20164;-66
2021/03/20 00:26:04;;;;;;;0.10;0.10;;;;;;;;;;5091360;28;20182;-65
2021/03/20 00:28:31;;;;;;;0.10;0.10;;;;;;;;;;5091330;28;20152;-65
2021/03/20 00:30:59;;;;;;;1.48;1.42;;;;;;;;;;5091104;28;20630;-65
2021/03/20 00:33:27;;;;;;;1.02;1.02;;;;;;;;;;5091187;28;20160;-65
2021/03/20 00:35:54;;;;;;;0.10;0.10;;;;;;;;;;5073103;28;20172;-65
2021/03/20 00:38:20;;;;;;;0.90;0.90;;;;;;;;;;5091180;28;20165;-64
2021/03/20 00:40:46;;;;;;;0.20;0.20;;;;;;;;;;5064436;28;20680;-65
2021/03/20 00:43:13;;;;;;;0.10;0.10;;;;;;;;;;5070972;28;20215;-64
2021/03/20 00:45:39;;;;;;;0.10;0.10;;;;;;;;;;5070881;28;20165;-64
2021/03/20 00:48:07;;;;;;;0.10;0.10;;;;;;;;;;5052003;28;20220;-65
2021/03/20 00:50:33;;;;;;;0.95;0.95;;;;;;;;;;5070662;28;20204;-65
2021/03/20 00:52:59;;;;;;;0.10;0.10;;;;;;;;;;5070706;28;20165;-65
2021/03/20 00:55:25;;;;;;;0.13;0.13;;;;;;;;;;5070745;28;20165;-65
2021/03/20 00:57:52;;;;;;;0.65;0.65;;;;;;;;;;5070673;28;20165;-65
2021/03/20 01:00:20;;;;;;;0.45;0.45;;;;;;;;;;5070509;28;20265;-65
2021/03/20 01:02:46;;;;;;;0.00;0.00;;;;;;;;;;5052739;28;20165;-65
2021/03/20 01:05:14;;;;;;;0.32;0.32;;;;;;;;;;5052608;28;20180;-64
2021/03/20 01:07:40;;;;;;;0.30;0.30;;;;;;;;;;5070560;28;20169;-64
2021/03/20 01:10:08;;;;;;;0.10;0.10;;;;;;;;;;5063252;28;20229;-64
2021/03/20 01:12:34;;;;;;;0.38;0.38;;;;;;;;;;5032462;28;20192;-64
2021/03/20 01:15:00;;;;;;;0.20;0.20;;;;;;;;;;5050315;28;20166;-64
2021/03/20 01:17:27;;;;;;;0.10;0.10;;;;;;;;;;5050336;28;20166;-64
2021/03/20 01:19:53;;;;;;;0.60;0.60;;;;;;;;;;5032516;28;20165;-65
2021/03/20 01:22:19;;;;;;;0.10;0.10;;;;;;;;;;5050222;28;20204;-65
2021/03/20 01:24:45;;;;;;;0.30;0.30;;;;;;;;;;5050176;28;20172;-65
2021/03/20 01:27:12;;;;;;;0.10;0.10;;;;;;;;;;5050107;28;20176;-65
2021/03/20 01:29:38;;;;;;;0.13;0.13;;;;;;;;;;5050015;28;20212;-65
2021/03/20 01:32:04;;;;;;;0.50;0.50;;;;;;;;;;5049962;28;20197;-65
2021/03/20 01:34:30;;;;;;;0.10;0.10;;;;;;;;;;5050040;28;20167;-64
2021/03/20 01:36:57;;;;;;;0.80;0.63;;;;;;;;;;5050040;28;20180;-64
2021/03/20 01:39:23;;;;;;;0.22;0.22;;;;;;;;;;5049813;28;20161;-64
2021/03/20 01:41:49;;;;;;;0.15;0.15;;;;;;;;;;5066702;28;20208;-64
2021/03/20 01:44:20;;;;;;;0.65;0.65;;;;;;;;;;5069766;28;20189;-65
2021/03/20 01:46:54;;;;;;;0.20;0.20;;;;;;;;;;5069545;28;20195;-64
2021/03/20 01:49:24;;;;;;;0.57;0.57;;;;;;;;;;5069536;28;20187;-64
2021/03/20 01:52:16;;;;;;;0.10;0.10;;;;;;;;;;5069535;28;20216;-64
2021/03/20 01:55:01;;;;;;;0.10;0.10;;;;;;;;;;5047528;28;20196;-65
2021/03/20 01:57:29;;;;;;;0.30;0.30;;;;;;;;;;5069582;28;20161;-65
2021/03/20 01:59:57;;;;;;;0.20;0.20;;;;;;;;;;5069571;28;20256;-65
2021/03/20 02:02:23;;;;;;;0.25;0.25;;;;;;;;;;5069565;28;20157;-65
2021/03/20 02:04:49;;;;;;;0.35;0.35;;;;;;;;;;5051591;28;20199;-65
2021/03/20 02:07:15;;;;;;;0.22;0.22;;;;;;;;;;5069402;28;20161;-65
2021/03/20 02:09:42;;;;;;;0.30;0.30;;;;;;;;;;5052929;28;20298;-65
2021/03/20 02:12:20;;;;;;;0.05;0.05;;;;;;;;;;5089225;28;20202;-64
2021/03/20 02:14:49;;;;;;;0.10;0.10;;;;;;;;;;5089357;28;20156;-65
2021/03/20 02:17:18;;;;;;;0.98;0.93;;;;;;;;;;5089319;28;20170;-66
2021/03/20 02:19:53;;;;;;;0.10;0.10;;;;;;;;;;5089394;28;20625;-65
2021/03/20 02:22:21;;;;;;;0.10;0.10;;;;;;;;;;5089329;28;20203;-65
2021/03/20 02:25:23;;;;;;;0.43;0.43;;;;;;;;;;5089315;28;20164;-66
2021/03/20 02:27:52;;;;;;;0.10;0.10;;;;;;;;;;4988273;28;20193;-65
2021/03/20 02:30:30;;;;;;;0.10;0.10;;;;;;;;;;4988061;28;20222;-66
2021/03/20 02:32:56;;;;;;;0.38;0.38;;;;;;;;;;4988246;28;20174;-65
2021/03/20 02:35:28;;;;;;;0.30;0.30;;;;;;;;;;4988075;28;20195;-65
2021/03/20 02:38:00;;;;;;;0.10;0.10;;;;;;;;;;4988131;28;20179;-65
2021/03/20 02:40:32;;;;;;;0.22;0.22;;;;;;;;;;4982441;28;20207;-66
2021/03/20 02:43:02;;;;;;;0.25;0.25;;;;;;;;;;4968838;29;20195;-65
2021/03/20 02:45:42;;;;;;;0.10;0.10;;;;;;;;;;4968542;29;20204;-65
2021/03/20 02:48:11;;;;;;;0.10;0.10;;;;;;;;;;4968290;29;20730;-65
2021/03/20 02:50:47;;;;;;;0.20;0.20;;;;;;;;;;4968426;29;20863;-65
2021/03/20 02:53:25;;;;;;;0.10;0.10;;;;;;;;;;4968518;29;20203;-65
2021/03/20 02:55:54;;;;;;;0.08;0.08;;;;;;;;;;4968532;29;20210;-65
2021/03/20 02:58:25;;;;;;;0.00;0.00;;;;;;;;;;4968552;29;20172;-65
2021/03/20 03:01:00;;;;;;;0.10;0.10;;;;;;;;;;4976030;28;20196;-65
2021/03/20 03:03:35;;;;;;;0.30;0.28;;;;;;;;;;5027545;28;20181;-66
2021/03/20 03:06:04;;;;;;;0.40;0.40;;;;;;;;;;5027663;28;20188;-65
2021/03/20 03:08:32;;;;;;;0.38;0.38;;;;;;;;;;5028832;28;20217;-66
2021/03/20 03:11:10;;;;;;;0.20;0.20;;;;;;;;;;5052402;28;20208;-66
2021/03/20 03:13:41;;;;;;;0.10;0.10;;;;;;;;;;5054518;28;20168;-65
2021/03/20 03:16:23;;;;;;;0.30;0.30;;;;;;;;;;5072357;28;20157;-66
2021/03/20 03:18:51;;;;;;;0.10;0.10;;;;;;;;;;5054343;28;20164;-66
2021/03/20 03:21:19;;;;;;;0.68;0.68;;;;;;;;;;5072282;28;20280;-66
2021/03/20 03:23:45;;;;;;;0.00;0.00;;;;;;;;;;5072400;28;20172;-66
2021/03/20 03:26:11;;;;;;;0.10;0.10;;;;;;;;;;5054236;28;20183;-66
2021/03/20 03:28:38;;;;;;;0.08;0.08;;;;;;;;;;5054235;28;20202;-66
2021/03/20 03:31:10;;;;;;;0.10;0.10;;;;;;;;;;5054128;28;20204;-65
2021/03/20 03:33:39;;;;;;;0.28;0.28;;;;;;;;;;5072259;28;20209;-65
2021/03/20 03:36:08;;;;;;;0.35;0.35;;;;;;;;;;5072427;28;20172;-66
2021/03/20 03:38:34;;;;;;;0.10;0.10;;;;;;;;;;5055056;28;20169;-66
2021/03/20 03:41:13;;;;;;;0.40;0.40;;;;;;;;;;5061851;28;20243;-65
2021/03/20 03:43:39;;;;;;;0.30;0.30;;;;;;;;;;5035209;28;20231;-65
2021/03/20 03:46:06;;;;;;;0.10;0.10;;;;;;;;;;5052382;28;20224;-64
2021/03/20 03:48:32;;;;;;;0.22;0.22;;;;;;;;;;5068072;28;20223;-64
2021/03/20 03:51:15;;;;;;;0.10;0.10;;;;;;;;;;5054666;28;20231;-66
2021/03/20 03:53:42;;;;;;;0.82;0.73;;;;;;;;;;5054124;28;20198;-65
2021/03/20 03:56:25;;;;;;;0.10;0.10;;;;;;;;;;5053526;28;20206;-66
2021/03/20 03:58:57;;;;;;;0.17;0.17;;;;;;;;;;5053538;28;20204;-66
2021/03/20 04:01:31;;;;;;;0.10;0.10;;;;;;;;;;5053206;28;20200;-66
2021/03/20 04:04:02;;;;;;;0.20;0.20;;;;;;;;;;5072061;28;20606;-65
2021/03/20 04:06:31;;;;;;;0.10;0.10;;;;;;;;;;5072527;28;20232;-66
2021/03/20 04:09:06;;;;;;;1.20;1.05;;;;;;;;;;5053959;28;20172;-66
2021/03/20 04:11:32;;;;;;;0.10;0.10;;;;;;;;;;5053351;28;20192;-66
2021/03/20 04:14:07;;;;;;;0.10;0.10;;;;;;;;;;5053110;28;20200;-66
2021/03/20 04:16:42;;;;;;;0.00;0.00;;;;;;;;;;5071166;28;20188;-66
2021/03/20 04:19:18;;;;;;;0.10;0.10;;;;;;;;;;5053103;28;20191;-66
2021/03/20 04:21:48;;;;;;;0.10;0.10;;;;;;;;;;5071127;28;20214;-66
2021/03/20 04:24:26;;;;;;;0.10;0.10;;;;;;;;;;5070058;28;20172;-66
2021/03/20 04:26:52;;;;;;;0.20;0.20;;;;;;;;;;5070994;28;20543;-66
2021/03/20 04:29:34;;;;;;;0.10;0.10;;;;;;;;;;5052622;28;20276;-66
2021/03/20 04:32:26;;;;;;;0.85;0.75;;;;;;;;;;5052918;28;20231;-65
2021/03/20 04:35:00;;;;;;;0.20;0.20;;;;;;;;;;5048637;28;20189;-66
2021/03/20 04:37:34;;;;;;;0.30;0.30;;;;;;;;;;5052642;28;20179;-66
2021/03/20 04:40:03;;;;;;;0.20;0.20;;;;;;;;;;5052921;28;20543;-66
2021/03/20 04:42:34;;;;;;;0.47;0.47;;;;;;;;;;5070670;28;20694;-66
2021/03/20 04:45:01;;;;;;;0.40;0.40;;;;;;;;;;5052782;28;20176;-66
2021/03/20 04:47:29;;;;;;;0.38;0.22;;;;;;;;;;5070359;28;20643;-65
2021/03/20 04:49:55;;;;;;;0.17;0.17;;;;;;;;;;5052555;28;20200;-64
2021/03/20 04:52:25;;;;;;;0.30;0.30;;;;;;;;;;5070485;28;20199;-66
2021/03/20 04:54:51;;;;;;;0.10;0.10;;;;;;;;;;5070476;28;20179;-66
2021/03/20 04:57:22;;;;;;;0.10;0.10;;;;;;;;;;5070407;28;20683;-65
2021/03/20 04:59:52;;;;;;;0.10;0.10;;;;;;;;;;5070366;28;20160;-65
2021/03/20 05:02:41;;;;;;;0.10;0.10;;;;;;;;;;5070187;28;20247;-66
2021/03/20 05:05:32;;;;;;;0.10;0.10;;;;;;;;;;5039691;28;20203;-66
2021/03/20 05:08:01;;;;;;;0.38;0.38;;;;;;;;;;5070114;28;20168;-66
2021/03/20 05:10:33;;;;;;;0.32;0.32;;;;;;;;;;5070130;28;20248;-66
2021/03/20 05:13:01;;;;;;;0.73;0.73;;;;;;;;;;5069918;28;20192;-66
2021/03/20 05:15:30;;;;;;;0.10;0.10;;;;;;;;;;5070151;28;20156;-65
2021/03/20 05:17:56;;;;;;;0.10;0.10;;;;;;;;;;5052005;28;20172;-66
2021/03/20 05:20:22;;;;;;;0.32;0.32;;;;;;;;;;5069952;28;20176;-66
2021/03/20 05:22:49;;;;;;;0.10;0.10;;;;;;;;;;5069861;28;20275;-66
2021/03/20 05:25:17;;;;;;;0.20;0.20;;;;;;;;;;5069956;28;20161;-65
2021/03/20 05:27:44;;;;;;;0.25;0.25;;;;;;;;;;5069820;28;20195;-66
2021/03/20 05:30:12;;;;;;;0.75;0.75;;;;;;;;;;5069774;28;20226;-66
2021/03/20 05:32:38;;;;;;;0.10;0.10;;;;;;;;;;5069653;28;20251;-66
2021/03/20 05:35:07;;;;;;;4.95;2.72;;;;;;;;;;5069237;28;20168;-66
2021/03/20 05:37:36;;;;;;;0.10;0.10;;;;;;;;;;5069585;28;20622;-67
2021/03/20 05:40:08;;;;;;;0.43;0.43;;;;;;;;;;5069588;28;20256;-67
2021/03/20 05:42:40;;;;;;;0.10;0.10;;;;;;;;;;5051639;28;20203;-66
2021/03/20 05:45:09;;;;;;;0.10;0.10;;;;;;;;;;5053149;28;20226;-66
2021/03/20 05:47:49;;;;;;;0.82;0.82;;;;;;;;;;5052247;28;20232;-68
2021/03/20 05:50:20;;;;;;;0.17;0.17;;;;;;;;;;5070056;28;20696;-65
2021/03/20 05:52:47;;;;;;;0.17;0.17;;;;;;;;;;5069284;28;20342;-65
2021/03/20 05:55:29;;;;;;;0.25;0.25;;;;;;;;;;5069329;28;20164;-65
2021/03/20 05:57:58;;;;;;;0.10;0.10;;;;;;;;;;5070904;28;20148;-67
2021/03/20 06:00:43;;;;;;;0.45;0.45;;;;;;;;;;5053143;28;20202;-66
2021/03/20 06:03:24;;;;;;;0.63;0.63;;;;;;;;;;5069092;28;20279;-66
2021/03/20 06:05:52;;;;;;;0.10;0.10;;;;;;;;;;5069229;28;20169;-66
2021/03/20 06:08:18;;;;;;;0.52;0.52;;;;;;;;;;5069297;28;20180;-66
2021/03/20 06:10:50;;;;;;;0.20;0.20;;;;;;;;;;5051317;28;20204;-66
2021/03/20 06:13:35;;;;;;;0.10;0.10;;;;;;;;;;5068968;28;20615;-66
2021/03/20 06:16:07;;;;;;;0.10;0.10;;;;;;;;;;5069161;28;20173;-66
2021/03/20 06:18:36;;;;;;;0.40;0.40;;;;;;;;;;5069053;28;20196;-65
2021/03/20 06:21:09;;;;;;;0.20;0.20;;;;;;;;;;5068875;28;20161;-66
2021/03/20 06:23:44;;;;;;;0.55;0.55;;;;;;;;;;5051172;28;20263;-65
2021/03/20 06:26:14;;;;;;;0.10;0.10;;;;;;;;;;5068969;28;20218;-65
2021/03/20 06:28:42;;;;;;;0.43;0.43;;;;;;;;;;5068812;28;20164;-65
2021/03/20 06:31:18;;;;;;;0.20;0.20;;;;;;;;;;5068888;28;20188;-66
2021/03/20 06:33:47;;;;;;;0.25;0.25;;;;;;;;;;5051083;28;20648;-66
2021/03/20 06:36:23;;;;;;;0.10;0.10;;;;;;;;;;5068790;28;20165;-65
2021/03/20 06:39:16;;;;;;;0.20;0.20;;;;;;;;;;5050876;28;20263;-66
2021/03/20 06:41:55;;;;;;;0.20;0.20;;;;;;;;;;5068738;28;20199;-66
2021/03/20 06:44:33;;;;;;;0.50;0.50;;;;;;;;;;5068609;28;20165;-65
2021/03/20 06:47:00;;;;;;;0.15;0.15;;;;;;;;;;5071063;28;20208;-66
2021/03/20 06:49:31;;;;;;;0.38;0.38;;;;;;;;;;5072784;28;20200;-66
2021/03/20 06:51:58;;;;;;;0.32;0.32;;;;;;;;;;5072666;28;20196;-66
2021/03/20 06:54:25;;;;;;;0.10;0.10;;;;;;;;;;5072732;28;20161;-66
2021/03/20 06:56:51;;;;;;;0.10;0.10;;;;;;;;;;5072683;28;20170;-66
2021/03/20 06:59:18;;;;;;;1.38;1.38;;;;;;;;;;5072652;28;20228;-66
2021/03/20 07:01:50;;;;;;;1.10;1.00;;;;;;;;;;5072587;28;20271;-66
2021/03/20 07:04:22;;;;;;;0.32;0.32;;;;;;;;;;5072406;28;20189;-66
2021/03/20 07:06:58;;;;;;;1.80;1.65;;;;;;;;;;5054617;28;20168;-67
2021/03/20 07:09:24;;;;;;;0.47;0.47;;;;;;;;;;5072371;28;20238;-66
2021/03/20 07:12:08;;;;;;;0.43;0.43;;;;;;;;;;5072249;28;20203;-67
2021/03/20 07:14:34;;;;;;;0.17;0.17;;;;;;;;;;5054438;28;20244;-66
2021/03/20 07:17:02;;;;;;;0.75;0.75;;;;;;;;;;5054244;28;20176;-67
2021/03/20 07:19:28;;;;;;;0.30;0.30;;;;;;;;;;5054234;28;20199;-67
2021/03/20 07:21:57;;;;;;;1.67;1.58;;;;;;;;;;5072025;28;20680;-67
2021/03/20 07:24:29;;;;;;;0.43;0.43;;;;;;;;;;5054284;28;20183;-68
2021/03/20 07:27:04;;;;;;;0.13;0.13;;;;;;;;;;5072158;28;20188;-67
2021/03/20 07:29:48;;;;;;;0.22;0.22;;;;;;;;;;5054017;28;20269;-67
2021/03/20 07:32:19;;;;;;;0.13;0.13;;;;;;;;;;5054014;28;20271;-67
2021/03/20 07:34:46;;;;;;;0.10;0.10;;;;;;;;;;5072027;28;20187;-66
2021/03/20 07:37:14;;;;;;;0.32;0.32;;;;;;;;;;5071860;28;20218;-66
2021/03/20 07:40:06;;;;;;;0.10;0.10;;;;;;;;;;5071970;28;20168;-66
2021/03/20 07:42:35;;;;;;;0.85;0.85;;;;;;;;;;5067109;28;20223;-66
2021/03/20 07:45:04;;;;;;;0.08;0.08;;;;;;;;;;5071633;28;20173;-66
2021/03/20 07:47:41;;;;;;;0.50;0.50;;;;;;;;;;5071597;28;20228;-66
2021/03/20 07:50:10;;;;;;;0.10;0.10;;;;;;;;;;5071565;28;20188;-66
2021/03/20 07:52:36;;;;;;;0.17;0.17;;;;;;;;;;5071307;28;20200;-66
2021/03/20 07:55:29;;;;;;;0.30;0.30;;;;;;;;;;5053639;28;20594;-65
2021/03/20 07:57:57;;;;;;;0.17;0.17;;;;;;;;;;5067156;28;20246;-65
2021/03/20 08:00:26;;;;;;;0.63;0.63;;;;;;;;;;5071653;28;20248;-65
2021/03/20 08:02:53;;;;;;;0.20;0.20;;;;;;;;;;5053421;28;20206;-65
2021/03/20 08:05:22;;;;;;;0.35;0.35;;;;;;;;;;5071527;28;20404;-65
2021/03/20 08:07:52;;;;;;;8.00;1.27;;;;;;;;;;5071292;28;20206;-65
2021/03/20 08:10:21;;;;;;;0.80;0.80;;;;;;;;;;5071258;28;20188;-65
2021/03/20 08:12:56;;;;;;;0.13;0.13;;;;;;;;;;5070964;28;20188;-65
2021/03/20 08:15:39;;;;;;;0.57;0.57;;;;;;;;;;5071146;28;20216;-65
2021/03/20 08:18:35;;;;;;;1.65;0.63;;;;;;;;;;5071293;28;20213;-65
2021/03/20 08:21:13;;;;;;;0.43;0.43;;;;;;;;;;5049883;28;20215;-65
2021/03/20 08:23:58;;;;;;;0.60;0.60;;;;;;;;;;5070807;28;20168;-65
2021/03/20 08:26:39;;;;;;;0.68;0.68;;;;;;;;;;5070835;28;20187;-65
2021/03/20 08:29:11;;;;;;;0.80;0.77;;;;;;;;;;5070733;28;20617;-65
2021/03/20 08:31:46;;;;;;;3.03;2.85;;;;;;;;;;5070426;28;20204;-65
2021/03/20 08:34:31;;;;;;;0.10;0.10;;;;;;;;;;5052733;28;20229;-65
2021/03/20 08:37:03;;;;;;;3.20;1.00;;;;;;;;;;5049142;28;20625;-65
2021/03/20 08:39:29;;;;;;;0.57;0.57;;;;;;;;;;5050929;28;20189;-65
2021/03/20 08:42:01;;;;;;;0.47;0.47;;;;;;;;;;5032493;28;20273;-65
2021/03/20 08:44:34;;;;;;;0.43;0.43;;;;;;;;;;5049410;28;20162;-65
2021/03/20 08:47:00;;;;;;;0.43;0.43;;;;;;;;;;5047014;28;20651;-65
2021/03/20 08:49:41;;;;;;;0.10;0.10;;;;;;;;;;5032406;28;20205;-65
2021/03/20 08:52:25;;;;;;;0.45;0.45;;;;;;;;;;5065061;28;20193;-64
2021/03/20 08:55:10;;;;;;;0.10;0.10;;;;;;;;;;5069231;28;20210;-65
2021/03/20 08:57:42;;;;;;;0.65;0.63;;;;;;;;;;5051954;28;20176;-65
2021/03/20 09:00:21;;;;;;;0.93;0.90;;;;;;;;;;5069387;28;20172;-65
2021/03/20 09:02:48;;;;;;;0.10;0.10;;;;;;;;;;5069962;28;20692;-66
2021/03/20 09:05:17;;;;;;;0.10;0.10;;;;;;;;;;5039343;28;20181;-65
2021/03/20 09:07:50;;;;;;;0.20;0.20;;;;;;;;;;5049203;28;20180;-65
2021/03/20 09:10:23;;;;;;;0.15;0.15;;;;;;;;;;5048963;28;20193;-66
2021/03/20 09:13:01;;;;;;;0.10;0.10;;;;;;;;;;5047941;28;20251;-66
2021/03/20 09:15:29;;;;;;;1.75;1.65;;;;;;;;;;5047322;28;20224;-66
2021/03/20 09:17:57;;;;;;;0.10;0.10;;;;;;;;;;5049641;28;20173;-64
2021/03/20 09:20:53;;;;;;;0.10;0.10;;;;;;;;;;5031736;28;20177;-64
2021/03/20 09:23:30;;;;;;;0.38;0.38;;;;;;;;;;4968912;29;20215;-64
2021/03/20 09:25:58;;;;;;;0.63;0.63;;;;;;;;;;4969470;28;20179;-66
2021/03/20 09:28:29;;;;;;;0.10;0.10;;;;;;;;;;4969336;28;20196;-66
2021/03/20 09:31:21;;;;;;;0.60;0.60;;;;;;;;;;4983816;28;20213;-65
2021/03/20 09:33:47;;;;;;;2.20;2.00;;;;;;;;;;4988261;28;20206;-65
2021/03/20 09:36:22;;;;;;;1.27;1.17;;;;;;;;;;4988422;28;20164;-65
2021/03/20 09:38:48;;;;;;;0.25;0.25;;;;;;;;;;4987516;28;20226;-66
2021/03/20 09:41:15;;;;;;;0.77;0.77;;;;;;;;;;4988362;28;20213;-65
2021/03/20 09:43:45;;;;;;;2.35;1.75;;;;;;;;;;4988139;28;20179;-66
2021/03/20 09:46:30;;;;;;;0.22;0.22;;;;;;;;;;4988180;28;20191;-66
2021/03/20 09:48:57;;;;;;;0.13;0.13;;;;;;;;;;4981176;28;20239;-65
2021/03/20 09:51:41;;;;;;;0.43;0.43;;;;;;;;;;4988071;28;20215;-65
2021/03/20 09:54:42;;;;;;;0.70;0.70;;;;;;;;;;4972076;28;20278;-65
2021/03/20 09:57:12;;;;;;;0.10;0.10;;;;;;;;;;4988122;28;20155;-65
2021/03/20 09:59:38;;;;;;;0.20;0.20;;;;;;;;;;5006628;28;20213;-65
2021/03/20 10:02:04;;;;;;;0.65;0.65;;;;;;;;;;5029164;28;20201;-65
2021/03/20 10:04:36;;;;;;;0.80;0.80;;;;;;;;;;5029068;28;20166;-66
2021/03/20 10:07:21;;;;;;;0.10;0.10;;;;;;;;;;5029034;28;20232;-65
2021/03/20 10:09:55;;;;;;;0.10;0.10;;;;;;;;;;5026838;28;20609;-65
2021/03/20 10:12:26;;;;;;;0.70;0.70;;;;;;;;;;5029048;28;20196;-65
2021/03/20 10:14:52;;;;;;;0.20;0.20;;;;;;;;;;5068641;28;20187;-65
2021/03/20 10:17:18;;;;;;;0.30;0.30;;;;;;;;;;5068667;28;20161;-64
2021/03/20 10:19:50;;;;;;;0.40;0.40;;;;;;;;;;5050129;28;20183;-65
2021/03/20 10:22:24;;;;;;;0.57;0.57;;;;;;;;;;5053110;28;20204;-65
2021/03/20 10:24:51;;;;;;;0.88;0.88;;;;;;;;;;5048361;28;20157;-65
2021/03/20 10:27:29;;;;;;;0.10;0.10;;;;;;;;;;5048648;28;20220;-66
2021/03/20 10:30:10;;;;;;;0.80;0.80;;;;;;;;;;5048713;28;20189;-65
2021/03/20 10:32:36;;;;;;;0.10;0.10;;;;;;;;;;5047335;28;20197;-65
2021/03/20 10:35:05;;;;;;;0.10;0.10;;;;;;;;;;5048717;28;20185;-66
2021/03/20 10:37:33;;;;;;;0.00;0.00;;;;;;;;;;5048604;28;20165;-66
2021/03/20 10:40:08;;;;;;;0.57;0.57;;;;;;;;;;5048576;28;20182;-65
2021/03/20 10:42:37;;;;;;;0.10;0.10;;;;;;;;;;5029779;28;20204;-65
2021/03/20 10:45:05;;;;;;;0.65;0.63;;;;;;;;;;5048517;28;20673;-65
2021/03/20 10:47:38;;;;;;;0.10;0.10;;;;;;;;;;5030560;28;20233;-66
2021/03/20 10:50:22;;;;;;;0.10;0.10;;;;;;;;;;5030996;28;20212;-67
2021/03/20 10:52:50;;;;;;;0.10;0.10;;;;;;;;;;5042200;28;20204;-67
2021/03/20 10:55:19;;;;;;;0.95;0.95;;;;;;;;;;5068258;28;20165;-65
2021/03/20 10:57:47;;;;;;;0.10;0.10;;;;;;;;;;5068514;28;20187;-66
2021/03/20 11:00:33;;;;;;;0.10;0.10;;;;;;;;;;5068250;28;20220;-66
2021/03/20 11:03:09;;;;;;;0.20;0.20;;;;;;;;;;5051121;28;20275;-65
2021/03/20 11:05:36;;;;;;;0.10;0.10;;;;;;;;;;5067623;28;20168;-65
2021/03/20 11:08:11;;;;;;;0.10;0.10;;;;;;;;;;5050399;28;20168;-66
2021/03/20 11:10:39;;;;;;;0.25;0.25;;;;;;;;;;5068008;28;20199;-64
2021/03/20 11:13:20;;;;;;;0.60;0.60;;;;;;;;;;5068038;28;20189;-65
2021/03/20 11:15:47;;;;;;;0.32;0.32;;;;;;;;;;5066919;28;20160;-66
2021/03/20 11:18:19;;;;;;;0.10;0.10;;;;;;;;;;5067944;28;20550;-65
2021/03/20 11:20:46;;;;;;;0.20;0.20;;;;;;;;;;5066676;28;20218;-65
2021/03/20 11:23:35;;;;;;;0.55;0.55;;;;;;;;;;5048160;28;20197;-66
2021/03/20 11:26:13;;;;;;;0.10;0.10;;;;;;;;;;5029481;28;20197;-65
2021/03/20 11:28:39;;;;;;;0.40;0.40;;;;;;;;;;5030129;28;20236;-65
2021/03/20 11:31:06;;;;;;;0.13;0.13;;;;;;;;;;5047876;28;20562;-65
2021/03/20 11:33:35;;;;;;;1.55;1.17;;;;;;;;;;5051015;28;20161;-66
2021/03/20 11:36:03;;;;;;;0.08;0.08;;;;;;;;;;5051051;28;20170;-71
2021/03/20 11:38:30;;;;;;;0.10;0.10;;;;;;;;;;5051660;28;20291;-71
2021/03/20 11:40:56;;;;;;;0.70;0.70;;;;;;;;;;5051600;28;20154;-71
2021/03/20 11:43:35;;;;;;;0.05;0.05;;;;;;;;;;5033678;28;20206;-71
2021/03/20 11:46:11;;;;;;;0.17;0.17;;;;;;;;;;5033711;28;20229;-71
2021/03/20 11:48:39;;;;;;;0.10;0.10;;;;;;;;;;5067169;28;20243;-71
2021/03/20 11:51:07;;;;;;;0.10;0.10;;;;;;;;;;5071396;28;20197;-71
2021/03/20 11:53:42;;;;;;;1.05;0.95;;;;;;;;;;5071407;28;20160;-71
2021/03/20 11:56:19;;;;;;;0.20;0.20;;;;;;;;;;5053357;28;20176;-71
2021/03/20 11:58:52;;;;;;;0.10;0.10;;;;;;;;;;5070339;28;20160;-71
2021/03/20 12:01:24;;;;;;;0.10;0.10;;;;;;;;;;5071301;28;20196;-71
2021/03/20 12:03:51;;;;;;;0.10;0.10;;;;;;;;;;5071223;28;20164;-71
2021/03/20 12:06:17;;;;;;;0.10;0.10;;;;;;;;;;5071281;28;20500;-71
2021/03/20 12:08:45;;;;;;;0.50;0.50;;;;;;;;;;5070162;28;20169;-71
2021/03/20 12:11:16;;;;;;;0.30;0.30;;;;;;;;;;5071014;28;20199;-70
2021/03/20 12:13:53;;;;;;;0.00;0.00;;;;;;;;;;5053025;28;20184;-71
2021/03/20 12:16:38;;;;;;;0.20;0.20;;;;;;;;;;5071074;28;20170;-70
2021/03/20 12:19:10;;;;;;;0.20;0.20;;;;;;;;;;5073618;28;20256;-71
2021/03/20 12:21:55;;;;;;;0.10;0.10;;;;;;;;;;5040859;28;20208;-71
2021/03/20 12:24:25;;;;;;;0.10;0.10;;;;;;;;;;5050964;28;20233;-71
2021/03/20 12:26:51;;;;;;;0.00;0.00;;;;;;;;;;5050759;28;20176;-71
2021/03/20 12:29:36;;;;;;;0.10;0.10;;;;;;;;;;5050699;28;20189;-72
2021/03/20 12:32:37;;;;;;;0.25;0.25;;;;;;;;;;5031877;28;20246;-71
2021/03/20 12:35:18;;;;;;;0.10;0.10;;;;;;;;;;4931912;29;20180;-71
2021/03/20 12:37:45;;;;;;;0.10;0.10;;;;;;;;;;4932066;29;20193;-71
2021/03/20 12:40:12;;;;;;;0.10;0.10;;;;;;;;;;4930961;29;20173;-71
2021/03/20 12:42:38;;;;;;;0.10;0.10;;;;;;;;;;4930817;29;20245;-71
2021/03/20 12:45:06;;;;;;;0.10;0.10;;;;;;;;;;4930812;29;20620;-71
2021/03/20 12:47:32;;;;;;;0.10;0.10;;;;;;;;;;4931654;29;20221;-71
2021/03/20 12:49:59;;;;;;;0.20;0.20;;;;;;;;;;4931890;29;20301;-71
2021/03/20 12:52:26;;;;;;;0.25;0.25;;;;;;;;;;4935559;29;20230;-71
2021/03/20 12:54:55;;;;;;;0.10;0.10;;;;;;;;;;4950748;29;20168;-71
2021/03/20 12:57:27;;;;;;;0.50;0.50;;;;;;;;;;4950099;29;20180;-71
2021/03/20 12:59:53;;;;;;;0.45;0.45;;;;;;;;;;4934503;29;20193;-72
2021/03/20 13:02:19;;;;;;;0.13;0.13;;;;;;;;;;4934305;29;20307;-72
2021/03/20 13:04:46;;;;;;;0.17;0.17;;;;;;;;;;4949944;29;20181;-72
2021/03/20 13:07:13;;;;;;;0.10;0.10;;;;;;;;;;4950326;29;20177;-72
2021/03/20 13:09:39;;;;;;;0.10;0.10;;;;;;;;;;4995005;28;20312;-72
2021/03/20 13:12:06;;;;;;;0.20;0.20;;;;;;;;;;5012370;28;20197;-71
2021/03/20 13:14:36;;;;;;;0.50;0.50;;;;;;;;;;5029235;28;20158;-72
2021/03/20 13:17:03;;;;;;;0.10;0.10;;;;;;;;;;5012422;28;20162;-72
2021/03/20 13:19:30;;;;;;;0.10;0.10;;;;;;;;;;5048452;28;20181;-72
2021/03/20 13:21:56;;;;;;;0.20;0.20;;;;;;;;;;5049760;28;20212;-73
2021/03/20 13:24:23;;;;;;;0.10;0.10;;;;;;;;;;5031064;28;20169;-72
2021/03/20 13:26:49;;;;;;;0.30;0.30;;;;;;;;;;5031491;28;20211;-72
2021/03/20 13:29:16;;;;;;;0.22;0.22;;;;;;;;;;5031844;28;20184;-73
2021/03/20 13:31:43;;;;;;;0.65;0.65;;;;;;;;;;5032043;28;20228;-72
2021/03/20 13:34:09;;;;;;;0.10;0.10;;;;;;;;;;5031839;28;20164;-73
2021/03/20 13:36:36;;;;;;;1.55;1.05;;;;;;;;;;5048608;28;20170;-72
2021/03/20 13:39:04;;;;;;;0.13;0.13;;;;;;;;;;5049497;28;20177;-72
2021/03/20 13:41:31;;;;;;;0.28;0.28;;;;;;;;;;5031333;28;20193;-73
2021/03/20 13:43:57;;;;;;;1.15;0.38;;;;;;;;;;5049385;28;20154;-72
2021/03/20 13:46:23;;;;;;;0.10;0.10;;;;;;;;;;5030568;28;20173;-72
2021/03/20 13:48:49;;;;;;;1.27;0.90;;;;;;;;;;5048122;28;20240;-72
2021/03/20 13:51:16;;;;;;;0.30;0.30;;;;;;;;;;5049042;28;20193;-73
2021/03/20 13:53:42;;;;;;;0.35;0.35;;;;;;;;;;5031127;28;20195;-72
2021/03/20 13:56:09;;;;;;;0.10;0.10;;;;;;;;;;5048848;28;20166;-73
2021/03/20 13:58:36;;;;;;;0.50;0.50;;;;;;;;;;5048201;28;20173;-72
2021/03/20 14:01:03;;;;;;;0.15;0.15;;;;;;;;;;5048894;28;20166;-73
2021/03/20 14:03:30;;;;;;;0.10;0.10;;;;;;;;;;5048894;28;20158;-73
2021/03/20 14:05:56;;;;;;;0.55;0.55;;;;;;;;;;5049081;28;20161;-73
2021/03/20 14:08:23;;;;;;;0.00;0.00;;;;;;;;;;5047825;28;20169;-73
2021/03/20 14:10:50;;;;;;;0.85;0.85;;;;;;;;;;5048597;28;20621;-72
2021/03/20 14:13:17;;;;;;;0.15;0.15;;;;;;;;;;5031067;28;20189;-73
2021/03/20 14:15:44;;;;;;;0.13;0.13;;;;;;;;;;5048733;28;20165;-72
2021/03/20 14:18:12;;;;;;;0.15;0.15;;;;;;;;;;5056208;28;20181;-72
2021/03/20 14:20:40;;;;;;;0.15;0.15;;;;;;;;;;5067767;28;20561;-72
2021/03/20 14:23:07;;;;;;;0.52;0.50;;;;;;;;;;5048649;28;20263;-72
2021/03/20 14:25:34;;;;;;;0.10;0.10;;;;;;;;;;5029818;28;20193;-73
2021/03/20 14:28:00;;;;;;;0.10;0.10;;;;;;;;;;5042857;28;20189;-72
2021/03/20 14:30:28;;;;;;;1.08;1.00;;;;;;;;;;5027573;28;20265;-72
2021/03/20 14:32:54;;;;;;;0.25;0.25;;;;;;;;;;5036611;28;20204;-72
2021/03/20 14:35:20;;;;;;;0.25;0.25;;;;;;;;;;5048727;28;20169;-71
2021/03/20 14:37:47;;;;;;;0.50;0.50;;;;;;;;;;5030853;28;20173;-71
2021/03/20 14:40:14;;;;;;;0.05;0.05;;;;;;;;;;5047934;28;20161;-72
2021/03/20 14:42:41;;;;;;;0.10;0.10;;;;;;;;;;5048370;28;20254;-71
2021/03/20 14:45:07;;;;;;;0.20;0.20;;;;;;;;;;5030770;28;20249;-70
2021/03/20 14:47:34;;;;;;;0.10;0.10;;;;;;;;;;5055071;28;20224;-71
2021/03/20 14:50:00;;;;;;;0.08;0.08;;;;;;;;;;5068583;28;20338;-71
2021/03/20 14:52:27;;;;;;;0.10;0.10;;;;;;;;;;5067096;28;20211;-74
2021/03/20 14:54:53;;;;;;;0.50;0.50;;;;;;;;;;5050205;28;20169;-74
2021/03/20 14:57:19;;;;;;;0.10;0.10;;;;;;;;;;5068438;28;20236;-74
2021/03/20 14:59:45;;;;;;;0.65;0.65;;;;;;;;;;5068279;28;20180;-72
2021/03/20 15:02:12;;;;;;;0.10;0.10;;;;;;;;;;5048715;28;20215;-73
2021/03/20 15:04:38;;;;;;;0.73;0.73;;;;;;;;;;5068385;28;20188;-74
2021/03/20 15:07:04;;;;;;;0.10;0.10;;;;;;;;;;5068759;28;20161;-72